SAS171 ESSA-ESGG
Flight info
| Callsign | SAS171 |
|---|---|
| Flight time | 0h 58m |
| Altitude | 30000 |
| Route | ARS N623 BEDLA N866 LAPSI DCT MOXAM |
| Aircraft | MD82/M-SDFGIRWY/S |
Departure
| Time | 2026-05-04 17:50 |
|---|---|
| Airport | Stockholm-Arlanda Airport (ESSA) |
Arrival
| Time | 2026-05-04 18:48 |
|---|---|
| Airport | Göteborg Landvetter Airport (ESGG) |
| Time | Latitude | Longitude | Altitude | Speed | Heading |
|---|---|---|---|---|---|
| 2026-05-04 17:12 | 59.65286 | 17.92944 | 138 ft | 0 kts | 69° |
| 2026-05-04 17:38 | 59.65285 | 17.92938 | 138 ft | 3 kts | 69° |
| 2026-05-04 17:38 | 59.65275 | 17.92889 | 138 ft | 4 kts | 68° |
| 2026-05-04 17:38 | 59.65266 | 17.92846 | 138 ft | 4 kts | 58° |
| 2026-05-04 17:39 | 59.65228 | 17.92835 | 138 ft | 4 kts | 333° |
| 2026-05-04 17:39 | 59.65221 | 17.92842 | 138 ft | 3 kts | 329° |
| 2026-05-04 17:44 | 59.65243 | 17.92816 | 138 ft | 8 kts | 328° |
| 2026-05-04 17:44 | 59.65298 | 17.92762 | 138 ft | 9 kts | 333° |
| 2026-05-04 17:44 | 59.65356 | 17.92701 | 138 ft | 10 kts | 331° |
| 2026-05-04 17:45 | 59.65419 | 17.92636 | 138 ft | 11 kts | 332° |
| 2026-05-04 17:45 | 59.65486 | 17.92571 | 138 ft | 11 kts | 333° |
| 2026-05-04 17:45 | 59.65568 | 17.92511 | 138 ft | 15 kts | 345° |
| 2026-05-04 17:45 | 59.65668 | 17.92459 | 138 ft | 15 kts | 345° |
| 2026-05-04 17:46 | 59.65772 | 17.92426 | 139 ft | 15 kts | 6° |
| 2026-05-04 17:46 | 59.65873 | 17.92451 | 139 ft | 13 kts | 353° |
| 2026-05-04 17:46 | 59.65913 | 17.92350 | 140 ft | 3 kts | 281° |
| 2026-05-04 17:46 | 59.65914 | 17.92341 | 140 ft | 0 kts | 281° |
| 2026-05-04 17:48 | 59.65916 | 17.92325 | 140 ft | 4 kts | 281° |
| 2026-05-04 17:48 | 59.65924 | 17.92237 | 143 ft | 7 kts | 279° |
| 2026-05-04 17:48 | 59.65926 | 17.92162 | 145 ft | 6 kts | 260° |
| 2026-05-04 17:49 | 59.65875 | 17.92102 | 146 ft | 17 kts | 191° |
| 2026-05-04 17:49 | 59.65568 | 17.91989 | 144 ft | 75 kts | 190° |
| 2026-05-04 17:49 | 59.64847 | 17.91722 | 145 ft | 134 kts | 192° |
| 2026-05-04 17:49 | 59.63796 | 17.91316 | 382 ft | 163 kts | 195° |
| 2026-05-04 17:50 | 59.62691 | 17.90891 | 1186 ft | 162 kts | 197° |
| 2026-05-04 17:50 | 59.61597 | 17.90243 | 1785 ft | 166 kts | 214° |
| 2026-05-04 17:50 | 59.60743 | 17.88826 | 2473 ft | 156 kts | 241° |
| 2026-05-04 17:50 | 59.60202 | 17.87036 | 3261 ft | 149 kts | 246° |
| 2026-05-04 17:51 | 59.59713 | 17.85179 | 3809 ft | 161 kts | 248° |
| 2026-05-04 17:51 | 59.59222 | 17.83093 | 4386 ft | 168 kts | 250° |
| 2026-05-04 17:51 | 59.58725 | 17.80947 | 5062 ft | 177 kts | 248° |
| 2026-05-04 17:51 | 59.58135 | 17.78654 | 5543 ft | 194 kts | 246° |
| 2026-05-04 17:52 | 59.57465 | 17.76204 | 5981 ft | 212 kts | 245° |
| 2026-05-04 17:52 | 59.56804 | 17.73479 | 6364 ft | 228 kts | 258° |
| 2026-05-04 17:52 | 59.56688 | 17.70249 | 6753 ft | 245 kts | 272° |
| 2026-05-04 17:52 | 59.56756 | 17.66833 | 7415 ft | 251 kts | 273° |
| 2026-05-04 17:53 | 59.56829 | 17.63426 | 8191 ft | 254 kts | 273° |
| 2026-05-04 17:53 | 59.56914 | 17.59933 | 8947 ft | 257 kts | 273° |
| 2026-05-04 17:53 | 59.57011 | 17.56384 | 9664 ft | 261 kts | 273° |
| 2026-05-04 17:53 | 59.57107 | 17.52725 | 10079 ft | 277 kts | 272° |
| 2026-05-04 17:54 | 59.57199 | 17.48791 | 10284 ft | 297 kts | 272° |
| 2026-05-04 17:54 | 59.57287 | 17.44603 | 10545 ft | 314 kts | 272° |
| 2026-05-04 17:54 | 59.57370 | 17.40254 | 11158 ft | 318 kts | 272° |
| 2026-05-04 17:54 | 59.57450 | 17.35899 | 12010 ft | 316 kts | 271° |
| 2026-05-04 17:55 | 59.57527 | 17.31573 | 12820 ft | 315 kts | 271° |
| 2026-05-04 17:55 | 59.57603 | 17.27239 | 13539 ft | 317 kts | 271° |
| 2026-05-04 17:55 | 59.57678 | 17.22882 | 14158 ft | 319 kts | 271° |
| 2026-05-04 17:55 | 59.57753 | 17.18506 | 14816 ft | 319 kts | 271° |
| 2026-05-04 17:56 | 59.57827 | 17.14121 | 15467 ft | 320 kts | 271° |
| 2026-05-04 17:56 | 59.57878 | 17.11151 | 15892 ft | 321 kts | 271° |
| 2026-05-04 17:56 | 59.57982 | 17.05292 | 16725 ft | 323 kts | 271° |
| 2026-05-04 17:56 | 59.58034 | 17.02299 | 17157 ft | 324 kts | 271° |
| 2026-05-04 17:57 | 59.58114 | 16.97842 | 17819 ft | 325 kts | 271° |
| 2026-05-04 17:57 | 59.58195 | 16.93377 | 18404 ft | 326 kts | 271° |
| 2026-05-04 17:57 | 59.58274 | 16.88892 | 18929 ft | 328 kts | 271° |
| 2026-05-04 17:57 | 59.58089 | 16.84407 | 19404 ft | 332 kts | 255° |
| 2026-05-04 17:58 | 59.57151 | 16.80221 | 19963 ft | 336 kts | 246° |
| 2026-05-04 17:58 | 59.56074 | 16.76109 | 20480 ft | 338 kts | 247° |
| 2026-05-04 17:58 | 59.55045 | 16.71927 | 20990 ft | 340 kts | 248° |
| 2026-05-04 17:58 | 59.54058 | 16.67677 | 21518 ft | 342 kts | 249° |
| 2026-05-04 17:59 | 59.53102 | 16.63379 | 22028 ft | 343 kts | 250° |
| 2026-05-04 17:59 | 59.52173 | 16.59033 | 22564 ft | 345 kts | 250° |
| 2026-05-04 17:59 | 59.50360 | 16.50219 | 23479 ft | 350 kts | 251° |
| 2026-05-04 18:00 | 59.49457 | 16.45750 | 23874 ft | 352 kts | 251° |
| 2026-05-04 18:00 | 59.48550 | 16.41251 | 24246 ft | 355 kts | 251° |
| 2026-05-04 18:00 | 59.47634 | 16.36713 | 24649 ft | 358 kts | 251° |
| 2026-05-04 18:00 | 59.46710 | 16.32157 | 25058 ft | 360 kts | 251° |
| 2026-05-04 18:01 | 59.45780 | 16.27581 | 25433 ft | 363 kts | 251° |
| 2026-05-04 18:01 | 59.44838 | 16.22955 | 25790 ft | 366 kts | 251° |
| 2026-05-04 18:01 | 59.43888 | 16.18300 | 26195 ft | 368 kts | 251° |
| 2026-05-04 18:02 | 59.41960 | 16.08908 | 26915 ft | 374 kts | 251° |
| 2026-05-04 18:02 | 59.40964 | 16.04175 | 27298 ft | 376 kts | 251° |
| 2026-05-04 18:02 | 59.39953 | 15.99426 | 27672 ft | 379 kts | 251° |
| 2026-05-04 18:02 | 59.38933 | 15.94628 | 28020 ft | 382 kts | 251° |
| 2026-05-04 18:03 | 59.37910 | 15.89807 | 28383 ft | 384 kts | 251° |
| 2026-05-04 18:03 | 59.36884 | 15.84965 | 28857 ft | 384 kts | 251° |
| 2026-05-04 18:03 | 59.35862 | 15.80136 | 29327 ft | 384 kts | 251° |
| 2026-05-04 18:03 | 59.34838 | 15.75283 | 29549 ft | 386 kts | 251° |
| 2026-05-04 18:04 | 59.32789 | 15.65574 | 29680 ft | 387 kts | 251° |
| 2026-05-04 18:05 | 59.29702 | 15.50973 | 29720 ft | 386 kts | 250° |
| 2026-05-04 18:05 | 59.27652 | 15.41303 | 29731 ft | 384 kts | 250° |
| 2026-05-04 18:06 | 59.24497 | 15.26828 | 29742 ft | 387 kts | 249° |
| 2026-05-04 18:06 | 59.22370 | 15.17150 | 29745 ft | 388 kts | 250° |
| 2026-05-04 18:07 | 59.20291 | 15.07421 | 29740 ft | 388 kts | 250° |
| 2026-05-04 18:07 | 59.17798 | 14.98101 | 29749 ft | 392 kts | 238° |
| 2026-05-04 18:08 | 59.14483 | 14.89631 | 29745 ft | 394 kts | 237° |
| 2026-05-04 18:08 | 59.11167 | 14.81144 | 29743 ft | 394 kts | 237° |
| 2026-05-04 18:09 | 59.04671 | 14.63959 | 29741 ft | 395 kts | 238° |
| 2026-05-04 18:10 | 59.01436 | 14.55345 | 29744 ft | 395 kts | 238° |
| 2026-05-04 18:10 | 58.98185 | 14.46728 | 29748 ft | 396 kts | 238° |
| 2026-05-04 18:11 | 58.94923 | 14.38113 | 29624 ft | 399 kts | 238° |
| 2026-05-04 18:11 | 58.93274 | 14.33772 | 29306 ft | 400 kts | 238° |
| 2026-05-04 18:11 | 58.91632 | 14.29477 | 28995 ft | 394 kts | 237° |
| 2026-05-04 18:12 | 58.90000 | 14.25268 | 28668 ft | 389 kts | 237° |
| 2026-05-04 18:12 | 58.88375 | 14.21111 | 28204 ft | 385 kts | 237° |
| 2026-05-04 18:12 | 58.86772 | 14.17011 | 27760 ft | 380 kts | 237° |
| 2026-05-04 18:12 | 58.85185 | 14.12943 | 27251 ft | 378 kts | 238° |
| 2026-05-04 18:13 | 58.83620 | 14.08918 | 26646 ft | 373 kts | 238° |
| 2026-05-04 18:13 | 58.82071 | 14.04930 | 26063 ft | 369 kts | 238° |
| 2026-05-04 18:13 | 58.79039 | 13.97117 | 24951 ft | 360 kts | 238° |
| 2026-05-04 18:14 | 58.77545 | 13.93272 | 24424 ft | 356 kts | 238° |
| 2026-05-04 18:14 | 58.76066 | 13.89463 | 23881 ft | 353 kts | 238° |
| 2026-05-04 18:14 | 58.74506 | 13.85818 | 23381 ft | 356 kts | 230° |
| 2026-05-04 18:15 | 58.70726 | 13.79650 | 22189 ft | 355 kts | 226° |
| 2026-05-04 18:15 | 58.66972 | 13.73619 | 21008 ft | 348 kts | 227° |
| 2026-05-04 18:15 | 58.65151 | 13.70586 | 20441 ft | 345 kts | 228° |
| 2026-05-04 18:16 | 58.63355 | 13.67537 | 19911 ft | 342 kts | 229° |
| 2026-05-04 18:16 | 58.61585 | 13.64494 | 19417 ft | 341 kts | 229° |
| 2026-05-04 18:16 | 58.59835 | 13.61462 | 18931 ft | 339 kts | 229° |
| 2026-05-04 18:17 | 58.56357 | 13.55422 | 17963 ft | 336 kts | 229° |
| 2026-05-04 18:17 | 58.54629 | 13.52423 | 17413 ft | 334 kts | 229° |
| 2026-05-04 18:17 | 58.51210 | 13.46509 | 16338 ft | 329 kts | 228° |
| 2026-05-04 18:18 | 58.49511 | 13.43585 | 15832 ft | 327 kts | 228° |
| 2026-05-04 18:18 | 58.47821 | 13.40680 | 15286 ft | 328 kts | 228° |
| 2026-05-04 18:18 | 58.46115 | 13.37746 | 14717 ft | 332 kts | 227° |
| 2026-05-04 18:18 | 58.44395 | 13.34796 | 14151 ft | 333 kts | 227° |
| 2026-05-04 18:19 | 58.40948 | 13.28983 | 12964 ft | 329 kts | 226° |
| 2026-05-04 18:19 | 58.39233 | 13.26117 | 12350 ft | 327 kts | 226° |
| 2026-05-04 18:19 | 58.37529 | 13.23268 | 11748 ft | 325 kts | 226° |
| 2026-05-04 18:20 | 58.35840 | 13.20438 | 11156 ft | 323 kts | 226° |
| 2026-05-04 18:20 | 58.34161 | 13.17621 | 10578 ft | 321 kts | 226° |
| 2026-05-04 18:20 | 58.32500 | 13.14827 | 10153 ft | 316 kts | 227° |
| 2026-05-04 18:20 | 58.31392 | 13.12963 | 9882 ft | 313 kts | 227° |
| 2026-05-04 18:21 | 58.30679 | 13.11766 | 9715 ft | 308 kts | 227° |
| 2026-05-04 18:21 | 58.29098 | 13.09112 | 9323 ft | 298 kts | 227° |
| 2026-05-04 18:21 | 58.27569 | 13.06547 | 8903 ft | 289 kts | 227° |
| 2026-05-04 18:21 | 58.26090 | 13.04059 | 8509 ft | 280 kts | 227° |
| 2026-05-04 18:22 | 58.24653 | 13.01644 | 8146 ft | 272 kts | 227° |
| 2026-05-04 18:22 | 58.23261 | 12.99309 | 7966 ft | 263 kts | 227° |
| 2026-05-04 18:22 | 58.21892 | 12.97010 | 7884 ft | 266 kts | 227° |
| 2026-05-04 18:22 | 58.20503 | 12.94674 | 7854 ft | 268 kts | 227° |
| 2026-05-04 18:23 | 58.19099 | 12.92315 | 7753 ft | 271 kts | 227° |
| 2026-05-04 18:23 | 58.17670 | 12.89918 | 7494 ft | 271 kts | 227° |
| 2026-05-04 18:23 | 58.16260 | 12.87560 | 7242 ft | 269 kts | 226° |
| 2026-05-04 18:23 | 58.14862 | 12.85231 | 6982 ft | 266 kts | 226° |
| 2026-05-04 18:24 | 58.13477 | 12.82931 | 6739 ft | 263 kts | 226° |
| 2026-05-04 18:24 | 58.12104 | 12.80662 | 6495 ft | 262 kts | 226° |
| 2026-05-04 18:24 | 58.10731 | 12.78405 | 6249 ft | 262 kts | 226° |
| 2026-05-04 18:24 | 58.09346 | 12.76127 | 5994 ft | 265 kts | 226° |
| 2026-05-04 18:25 | 58.07956 | 12.73832 | 5737 ft | 266 kts | 226° |
| 2026-05-04 18:25 | 58.06562 | 12.71526 | 5475 ft | 266 kts | 226° |
| 2026-05-04 18:25 | 58.05179 | 12.69249 | 5324 ft | 262 kts | 226° |
| 2026-05-04 18:25 | 58.03807 | 12.66993 | 5133 ft | 262 kts | 225° |
| 2026-05-04 18:26 | 58.02448 | 12.64754 | 4877 ft | 256 kts | 225° |
| 2026-05-04 18:26 | 58.01121 | 12.62571 | 4571 ft | 250 kts | 225° |
| 2026-05-04 18:26 | 57.99827 | 12.60449 | 4240 ft | 244 kts | 225° |
| 2026-05-04 18:26 | 57.98550 | 12.58348 | 3931 ft | 243 kts | 225° |
| 2026-05-04 18:27 | 57.97247 | 12.56311 | 3639 ft | 245 kts | 218° |
| 2026-05-04 18:27 | 57.95751 | 12.54779 | 3324 ft | 244 kts | 211° |
| 2026-05-04 18:27 | 57.94223 | 12.53448 | 3027 ft | 241 kts | 210° |
| 2026-05-04 18:27 | 57.92720 | 12.52150 | 2784 ft | 234 kts | 211° |
| 2026-05-04 18:28 | 57.91274 | 12.50904 | 2615 ft | 225 kts | 211° |
| 2026-05-04 18:28 | 57.89863 | 12.49671 | 2567 ft | 224 kts | 211° |
| 2026-05-04 18:28 | 57.88458 | 12.48428 | 2527 ft | 223 kts | 211° |
| 2026-05-04 18:28 | 57.87065 | 12.47178 | 2507 ft | 221 kts | 212° |
| 2026-05-04 18:29 | 57.85675 | 12.45913 | 2495 ft | 222 kts | 211° |
| 2026-05-04 18:29 | 57.84335 | 12.44679 | 2491 ft | 207 kts | 212° |
| 2026-05-04 18:29 | 57.83076 | 12.43519 | 2507 ft | 198 kts | 212° |
| 2026-05-04 18:29 | 57.81885 | 12.42313 | 2513 ft | 192 kts | 218° |
| 2026-05-04 18:30 | 57.79593 | 12.40120 | 2458 ft | 175 kts | 211° |
| 2026-05-04 18:30 | 57.78498 | 12.39131 | 2483 ft | 173 kts | 214° |
| 2026-05-04 18:30 | 57.77426 | 12.38125 | 2492 ft | 169 kts | 213° |
| 2026-05-04 18:31 | 57.76401 | 12.37215 | 2478 ft | 157 kts | 213° |
| 2026-05-04 18:31 | 57.75424 | 12.36322 | 2324 ft | 159 kts | 214° |
| 2026-05-04 18:31 | 57.74437 | 12.35424 | 2105 ft | 156 kts | 214° |
| 2026-05-04 18:31 | 57.73469 | 12.34517 | 1870 ft | 155 kts | 213° |
| 2026-05-04 18:32 | 57.72538 | 12.33678 | 1766 ft | 139 kts | 212° |
| 2026-05-04 18:32 | 57.71707 | 12.32941 | 1643 ft | 135 kts | 214° |
| 2026-05-04 18:32 | 57.71141 | 12.32405 | 1411 ft | 137 kts | 213° |
| 2026-05-04 18:32 | 57.70311 | 12.31613 | 1112 ft | 132 kts | 210° |
| 2026-05-04 18:33 | 57.69407 | 12.30816 | 1076 ft | 158 kts | 209° |
| 2026-05-04 18:33 | 57.68347 | 12.29940 | 1672 ft | 173 kts | 209° |
| 2026-05-04 18:33 | 57.67234 | 12.29071 | 2504 ft | 175 kts | 209° |
| 2026-05-04 18:33 | 57.66104 | 12.28287 | 2854 ft | 170 kts | 207° |
| 2026-05-04 18:34 | 57.65029 | 12.27598 | 2886 ft | 161 kts | 207° |
| 2026-05-04 18:34 | 57.63928 | 12.26919 | 3305 ft | 164 kts | 206° |
| 2026-05-04 18:34 | 57.62871 | 12.26324 | 3917 ft | 167 kts | 205° |
| 2026-05-04 18:34 | 57.61633 | 12.25579 | 3791 ft | 203 kts | 206° |
| 2026-05-04 18:35 | 57.60242 | 12.24629 | 3760 ft | 221 kts | 206° |
| 2026-05-04 18:35 | 57.58757 | 12.23593 | 3664 ft | 229 kts | 206° |
| 2026-05-04 18:35 | 57.57310 | 12.22436 | 3490 ft | 232 kts | 216° |
| 2026-05-04 18:35 | 57.56146 | 12.20495 | 3143 ft | 222 kts | 238° |
| 2026-05-04 18:36 | 57.55483 | 12.17982 | 2995 ft | 216 kts | 257° |
| 2026-05-04 18:36 | 57.55390 | 12.15335 | 3383 ft | 212 kts | 276° |
| 2026-05-04 18:36 | 57.55870 | 12.12624 | 3213 ft | 227 kts | 297° |
| 2026-05-04 18:36 | 57.56800 | 12.10338 | 3140 ft | 215 kts | 307° |
| 2026-05-04 18:37 | 57.57772 | 12.08226 | 3145 ft | 215 kts | 307° |
| 2026-05-04 18:37 | 57.58725 | 12.06119 | 3296 ft | 207 kts | 306° |
| 2026-05-04 18:37 | 57.59682 | 12.03988 | 3105 ft | 207 kts | 306° |
| 2026-05-04 18:37 | 57.60618 | 12.01905 | 3091 ft | 215 kts | 306° |
| 2026-05-04 18:38 | 57.61538 | 11.99790 | 3017 ft | 213 kts | 305° |
| 2026-05-04 18:38 | 57.62460 | 11.97630 | 2893 ft | 208 kts | 305° |
| 2026-05-04 18:38 | 57.63406 | 11.95532 | 2912 ft | 213 kts | 313° |
| 2026-05-04 18:38 | 57.64666 | 11.94022 | 2914 ft | 221 kts | 334° |
| 2026-05-04 18:39 | 57.66184 | 11.93459 | 2873 ft | 227 kts | 354° |
| 2026-05-04 18:39 | 57.67780 | 11.93933 | 2844 ft | 239 kts | 14° |
| 2026-05-04 18:39 | 57.69258 | 11.95410 | 2832 ft | 245 kts | 31° |
| 2026-05-04 18:39 | 57.70613 | 11.97329 | 2887 ft | 242 kts | 33° |
| 2026-05-04 18:40 | 57.71941 | 11.99321 | 2948 ft | 247 kts | 34° |
| 2026-05-04 18:40 | 57.73265 | 12.01360 | 2971 ft | 248 kts | 35° |
| 2026-05-04 18:40 | 57.74582 | 12.03420 | 2997 ft | 246 kts | 35° |
| 2026-05-04 18:40 | 57.75904 | 12.05511 | 3010 ft | 252 kts | 35° |
| 2026-05-04 18:41 | 57.77238 | 12.07636 | 3012 ft | 251 kts | 36° |
| 2026-05-04 18:41 | 57.78520 | 12.09913 | 3013 ft | 257 kts | 47° |
| 2026-05-04 18:41 | 57.79556 | 12.12671 | 3001 ft | 261 kts | 54° |
| 2026-05-04 18:41 | 57.80524 | 12.15538 | 2993 ft | 260 kts | 54° |
| 2026-05-04 18:42 | 57.81479 | 12.18418 | 2997 ft | 258 kts | 54° |
| 2026-05-04 18:42 | 57.82418 | 12.21307 | 2999 ft | 261 kts | 55° |
| 2026-05-04 18:42 | 57.83357 | 12.24229 | 3000 ft | 262 kts | 55° |
| 2026-05-04 18:42 | 57.84295 | 12.27142 | 3000 ft | 260 kts | 55° |
| 2026-05-04 18:43 | 57.85229 | 12.30045 | 3007 ft | 258 kts | 56° |
| 2026-05-04 18:43 | 57.85933 | 12.33111 | 2968 ft | 259 kts | 77° |
| 2026-05-04 18:43 | 57.85955 | 12.36460 | 2988 ft | 258 kts | 104° |
| 2026-05-04 18:43 | 57.85276 | 12.39498 | 2995 ft | 249 kts | 130° |
| 2026-05-04 18:44 | 57.84052 | 12.41733 | 3003 ft | 243 kts | 152° |
| 2026-05-04 18:44 | 57.83060 | 12.42719 | 2996 ft | 237 kts | 167° |
| 2026-05-04 18:44 | 57.81068 | 12.42403 | 3013 ft | 212 kts | 223° |
| 2026-05-04 18:44 | 57.80021 | 12.40541 | 3018 ft | 211 kts | 221° |
| 2026-05-04 18:45 | 57.78656 | 12.39390 | 3005 ft | 218 kts | 208° |
| 2026-05-04 18:45 | 57.77347 | 12.38178 | 2758 ft | 205 kts | 216° |
| 2026-05-04 18:45 | 57.76130 | 12.36948 | 2495 ft | 189 kts | 212° |
| 2026-05-04 18:45 | 57.74994 | 12.35917 | 2214 ft | 176 kts | 213° |
| 2026-05-04 18:46 | 57.73947 | 12.34947 | 1988 ft | 158 kts | 214° |
| 2026-05-04 18:46 | 57.72999 | 12.34068 | 1736 ft | 148 kts | 213° |
| 2026-05-04 18:46 | 57.72109 | 12.33257 | 1520 ft | 137 kts | 213° |
| 2026-05-04 18:46 | 57.71273 | 12.32498 | 1310 ft | 132 kts | 212° |
| 2026-05-04 18:47 | 57.70455 | 12.31740 | 1137 ft | 129 kts | 211° |
| 2026-05-04 18:47 | 57.69647 | 12.31009 | 1020 ft | 129 kts | 211° |
| 2026-05-04 18:47 | 57.68821 | 12.30286 | 854 ft | 132 kts | 210° |
| 2026-05-04 18:47 | 57.67992 | 12.29551 | 658 ft | 131 kts | 212° |
| 2026-05-04 18:48 | 57.67196 | 12.28806 | 517 ft | 122 kts | 209° |
| 2026-05-04 18:48 | 57.66546 | 12.28221 | 512 ft | 80 kts | 204° |
| 2026-05-04 18:48 | 57.66274 | 12.27976 | 511 ft | 30 kts | 207° |
| 2026-05-04 18:48 | 57.66161 | 12.27948 | 509 ft | 14 kts | 150° |
| 2026-05-04 18:49 | 57.66113 | 12.28073 | 509 ft | 10 kts | 114° |
| 2026-05-04 18:49 | 57.66116 | 12.28161 | 510 ft | 7 kts | 56° |
| 2026-05-04 18:49 | 57.66155 | 12.28208 | 510 ft | 7 kts | 25° |
| 2026-05-04 18:49 | 57.66203 | 12.28251 | 511 ft | 8 kts | 26° |
| 2026-05-04 18:50 | 57.66259 | 12.28302 | 511 ft | 9 kts | 26° |
| 2026-05-04 18:50 | 57.66321 | 12.28358 | 511 ft | 10 kts | 26° |
| 2026-05-04 18:50 | 57.66388 | 12.28421 | 512 ft | 11 kts | 27° |
| 2026-05-04 18:50 | 57.66462 | 12.28491 | 512 ft | 12 kts | 25° |
| 2026-05-04 18:51 | 57.66544 | 12.28562 | 512 ft | 14 kts | 25° |
| 2026-05-04 18:51 | 57.66631 | 12.28641 | 513 ft | 14 kts | 27° |
| 2026-05-04 18:51 | 57.66725 | 12.28727 | 513 ft | 15 kts | 26° |
| 2026-05-04 18:51 | 57.66823 | 12.28815 | 514 ft | 16 kts | 26° |
| 2026-05-04 18:52 | 57.66927 | 12.28909 | 514 ft | 17 kts | 26° |
| 2026-05-04 18:52 | 57.67015 | 12.28994 | 515 ft | 9 kts | 30° |
| 2026-05-04 18:52 | 57.67037 | 12.29088 | 515 ft | 9 kts | 105° |
| 2026-05-04 18:52 | 57.67017 | 12.29174 | 517 ft | 7 kts | 115° |
| 2026-05-04 18:53 | 57.66993 | 12.29269 | 517 ft | 9 kts | 115° |
| 2026-05-04 18:53 | 57.66959 | 12.29366 | 517 ft | 8 kts | 117° |
| 2026-05-04 18:53 | 57.66941 | 12.29431 | 517 ft | 5 kts | 116° |
| 2026-05-04 18:53 | 57.66936 | 12.29450 | 517 ft | 0 kts | 116° |